Time;durP1;ratioP1;P1;durP2;ratioP2;P2;SDS_P1;SDS_P2;PMS_P1;PMS_P2;Temp;Humidity;BMP_temperature;BMP_pressure;BME280_temperature;BME280_humidity;BME280_pressure;Samples;Min_cycle;Max_cycle;Signal;HPM_P1;HPM_P2
2021/07/28 00:00:21;;;;;;;6.53;3.90;;;20.80;69.00;;;;;;1897150;76;21033;-51
2021/07/28 00:02:51;;;;;;;6.03;3.92;;;20.70;68.90;;;;;;1897142;76;21034;-52
2021/07/28 00:05:20;;;;;;;5.53;3.80;;;20.60;69.00;;;;;;1897183;76;21091;-51
2021/07/28 00:07:49;;;;;;;5.25;3.58;;;20.60;69.30;;;;;;1897249;76;21061;-52
2021/07/28 00:10:19;;;;;;;5.08;4.53;;;20.60;69.50;;;;;;1897012;76;21123;-48
2021/07/28 00:12:48;;;;;;;9.65;4.22;;;20.60;69.20;;;;;;1897229;76;21080;-52
2021/07/28 00:15:18;;;;;;;7.35;4.00;;;20.50;69.40;;;;;;1897175;76;21079;-49
2021/07/28 00:17:50;;;;;;;6.70;4.28;;;20.50;69.60;;;;;;1897231;75;21099;-51
2021/07/28 00:20:28;;;;;;;6.15;4.28;;;20.50;69.80;;;;;;1897157;75;20998;-51
2021/07/28 00:25:37;;;;;;;8.10;4.75;;;20.50;69.80;;;;;;1897137;75;21147;-52
2021/07/28 00:28:07;;;;;;;8.85;4.72;;;20.40;69.90;;;;;;1897121;75;21025;-50
2021/07/28 00:30:36;;;;;;;5.47;4.10;;;20.40;69.80;;;;;;1897136;76;21021;-51
2021/07/28 00:33:06;;;;;;;6.37;4.45;;;20.40;69.90;;;;;;1897108;76;21096;-51
2021/07/28 00:35:35;;;;;;;6.25;4.58;;;20.40;69.80;;;;;;1897124;76;21022;-50
2021/07/28 00:38:05;;;;;;;15.32;5.87;;;20.40;69.90;;;;;;1897097;76;21026;-50
2021/07/28 00:40:35;;;;;;;10.23;5.42;;;20.30;70.00;;;;;;1897245;76;21045;-49
2021/07/28 00:43:15;;;;;;;14.13;5.47;;;20.30;70.40;;;;;;1897217;76;21052;-48
2021/07/28 00:45:47;;;;;;;18.60;6.90;;;20.20;70.40;;;;;;1897023;76;21096;-50
2021/07/28 00:48:16;;;;;;;16.93;6.87;;;20.20;70.40;;;;;;1897235;75;21101;-51
2021/07/28 00:50:46;;;;;;;19.55;7.30;;;20.20;70.50;;;;;;1897053;75;21084;-49
2021/07/28 00:53:18;;;;;;;9.50;5.05;;;20.20;70.30;;;;;;1897240;76;21033;-50
2021/07/28 00:55:49;;;;;;;10.03;5.20;;;20.20;70.50;;;;;;1897218;76;21033;-48
2021/07/28 00:58:19;;;;;;;8.73;5.15;;;20.20;70.80;;;;;;1875995;75;21138;-50
2021/07/28 01:00:49;;;;;;;9.10;5.85;;;20.20;70.40;;;;;;1863194;77;21023;-51
2021/07/28 01:03:19;;;;;;;9.90;5.10;;;20.30;70.20;;;;;;1863233;76;21081;-51
2021/07/28 01:05:48;;;;;;;12.70;5.10;;;20.20;69.90;;;;;;1863068;77;21031;-50
2021/07/28 01:08:18;;;;;;;15.20;5.80;;;20.20;69.60;;;;;;1863096;77;21039;-51
2021/07/28 01:10:47;;;;;;;11.30;5.60;;;20.10;69.90;;;;;;1863068;76;21035;-51
2021/07/28 01:13:26;;;;;;;12.28;5.45;;;20.10;70.30;;;;;;1863186;76;21059;-50
2021/07/28 01:15:54;;;;;;;8.50;4.90;;;20.10;70.60;;;;;;1861918;77;21015;-50
2021/07/28 01:18:19;;;;;;;9.30;4.67;;;20.10;70.70;;;;;;1862625;77;21473;-50
2021/07/28 01:20:49;;;;;;;7.47;5.05;;;20.10;70.40;;;;;;1863083;77;21027;-51
2021/07/28 01:23:21;;;;;;;8.68;4.85;;;20.10;70.10;;;;;;1863139;76;21027;-51
2021/07/28 01:25:52;;;;;;;7.85;4.70;;;20.00;70.40;;;;;;1862644;76;21081;-50
2021/07/28 01:28:23;;;;;;;8.00;4.42;;;20.00;70.70;;;;;;1863185;77;21029;-51
2021/07/28 01:31:04;;;;;;;8.20;4.45;;;19.90;71.10;;;;;;1863198;77;21015;-47
2021/07/28 01:33:38;;;;;;;8.18;5.08;;;19.90;71.20;;;;;;1863127;76;21047;-51
2021/07/28 01:36:09;;;;;;;6.42;4.22;;;20.00;71.50;;;;;;1863338;77;21473;-51
2021/07/28 01:38:38;;;;;;;7.67;4.45;;;20.00;71.60;;;;;;1862172;77;21003;-50
2021/07/28 01:41:09;;;;;;;10.63;5.42;;;20.00;70.90;;;;;;1863193;77;21023;-50
2021/07/28 01:43:39;;;;;;;10.78;5.37;;;20.00;70.70;;;;;;1863193;77;21094;-50
2021/07/28 01:46:08;;;;;;;7.65;5.30;;;20.00;70.80;;;;;;1862952;77;21125;-51
2021/07/28 01:48:38;;;;;;;6.92;5.42;;;20.00;71.10;;;;;;1863120;77;21027;-49
2021/07/28 01:51:07;;;;;;;7.08;4.70;;;19.90;71.10;;;;;;1863117;76;21093;-49
2021/07/28 01:53:36;;;;;;;12.23;5.60;;;19.90;71.40;;;;;;1863106;77;21033;-50
2021/07/28 01:56:06;;;;;;;9.30;6.08;;;19.80;71.30;;;;;;1863036;77;21039;-49
2021/07/28 01:58:39;;;;;;;12.23;5.55;;;19.70;71.50;;;;;;1879293;75;21053;-50
2021/07/28 02:01:06;;;;;;;10.72;6.03;;;19.70;71.60;;;;;;1897051;74;21499;-50
2021/07/28 02:03:36;;;;;;;11.48;6.60;;;19.70;71.60;;;;;;1897109;75;21002;-52
2021/07/28 02:06:08;;;;;;;15.68;6.20;;;19.70;71.50;;;;;;1897022;76;21045;-50
2021/07/28 02:08:37;;;;;;;11.55;6.22;;;19.70;71.40;;;;;;1897112;76;21025;-51
2021/07/28 02:11:06;;;;;;;13.75;5.87;;;19.60;71.30;;;;;;1897081;76;21033;-51
2021/07/28 02:13:35;;;;;;;13.70;6.40;;;19.50;71.70;;;;;;1897286;75;21025;-51
2021/07/28 02:16:06;;;;;;;13.18;5.25;;;19.40;71.80;;;;;;1897070;75;21002;-49
2021/07/28 02:18:35;;;;;;;8.18;5.70;;;19.40;71.90;;;;;;1897155;76;21058;-50
2021/07/28 02:21:05;;;;;;;9.83;6.45;;;19.50;72.40;;;;;;1897202;76;21029;-50
2021/07/28 02:23:34;;;;;;;10.88;5.50;;;19.50;72.50;;;;;;1897135;76;21069;-50
2021/07/28 02:26:03;;;;;;;10.58;5.70;;;19.50;72.60;;;;;;1897153;76;21084;-51
2021/07/28 02:28:33;;;;;;;13.18;6.50;;;19.60;72.70;;;;;;1897200;76;21026;-51
2021/07/28 02:31:02;;;;;;;16.77;7.10;;;19.70;72.20;;;;;;1897127;76;21154;-49
2021/07/28 02:33:32;;;;;;;9.05;5.95;;;19.80;72.10;;;;;;1897163;76;21026;-50
2021/07/28 02:36:02;;;;;;;11.05;6.28;;;19.90;72.20;;;;;;1897227;75;21050;-49
2021/07/28 02:38:31;;;;;;;15.60;6.60;;;19.90;72.30;;;;;;1897168;76;21091;-51
2021/07/28 02:41:01;;;;;;;10.00;5.92;;;20.00;72.50;;;;;;1897050;76;21007;-50
2021/07/28 02:43:30;;;;;;;11.22;6.87;;;20.00;72.50;;;;;;1897086;76;21033;-49
2021/07/28 02:45:59;;;;;;;9.45;5.70;;;20.30;72.40;;;;;;1896981;76;21025;-51
2021/07/28 02:48:29;;;;;;;9.95;5.60;;;20.40;71.50;;;;;;1897161;76;21029;-51
2021/07/28 02:50:59;;;;;;;6.53;4.97;;;20.50;71.30;;;;;;1897070;76;21029;-50
2021/07/28 02:53:28;;;;;;;10.85;5.85;;;20.50;71.30;;;;;;1897056;75;21006;-50
2021/07/28 02:55:58;;;;;;;11.45;5.45;;;20.40;71.20;;;;;;1897017;76;21026;-51
2021/07/28 02:58:27;;;;;;;6.42;4.42;;;20.50;71.20;;;;;;1897087;75;21164;-49
2021/07/28 03:00:56;;;;;;;7.40;4.92;;;20.40;71.60;;;;;;1897264;74;21026;-50
2021/07/28 03:03:26;;;;;;;7.90;4.35;;;20.40;71.70;;;;;;1897252;76;21119;-51
2021/07/28 03:05:55;;;;;;;9.15;5.37;;;20.40;71.80;;;;;;1897242;76;20994;-51
2021/07/28 03:08:25;;;;;;;11.65;5.08;;;20.50;71.70;;;;;;1897186;76;21085;-50
2021/07/28 03:10:54;;;;;;;6.92;4.97;;;20.50;71.30;;;;;;1897259;75;21078;-49
2021/07/28 03:13:23;;;;;;;7.50;4.95;;;20.40;71.40;;;;;;1897138;76;21111;-50
2021/07/28 03:15:53;;;;;;;10.30;4.80;;;20.40;71.40;;;;;;1897091;74;21025;-49
2021/07/28 03:18:22;;;;;;;9.30;5.72;;;20.40;71.40;;;;;;1897120;76;21018;-51
2021/07/28 03:20:52;;;;;;;7.25;4.72;;;20.40;71.40;;;;;;1897112;75;21116;-50
2021/07/28 03:23:21;;;;;;;6.47;4.53;;;20.50;71.30;;;;;;1897258;76;21546;-51
2021/07/28 03:25:50;;;;;;;9.90;5.42;;;20.50;71.40;;;;;;1897218;76;21025;-50
2021/07/28 03:28:20;;;;;;;7.83;4.90;;;20.60;71.40;;;;;;1897132;76;21034;-50
2021/07/28 03:30:49;;;;;;;9.30;5.62;;;20.70;71.30;;;;;;1897200;76;21099;-48
2021/07/28 03:33:19;;;;;;;11.78;5.67;;;20.80;70.70;;;;;;1897254;76;21025;-50
2021/07/28 03:35:48;;;;;;;13.08;5.17;;;20.80;70.20;;;;;;1897114;76;21091;-51
2021/07/28 03:38:18;;;;;;;9.68;5.85;;;20.70;69.90;;;;;;1897124;76;21096;-51
2021/07/28 03:40:48;;;;;;;8.60;5.70;;;20.70;69.80;;;;;;1897098;76;21050;-50
2021/07/28 03:43:17;;;;;;;7.55;5.37;;;20.60;69.90;;;;;;1897177;74;21033;-49
2021/07/28 03:45:46;;;;;;;11.38;5.53;;;20.60;69.90;;;;;;1897159;76;21087;-50
2021/07/28 03:48:16;;;;;;;6.30;4.75;;;20.50;69.70;;;;;;1897233;74;21014;-50
2021/07/28 03:50:45;;;;;;;9.78;6.28;;;20.40;69.90;;;;;;1897121;76;21030;-50
2021/07/28 03:53:14;;;;;;;8.83;5.42;;;20.40;70.40;;;;;;1897115;74;21069;-51
2021/07/28 03:55:44;;;;;;;10.23;5.75;;;20.40;70.30;;;;;;1897140;76;21065;-50
2021/07/28 03:58:13;;;;;;;8.43;5.75;;;20.40;70.30;;;;;;1897113;76;21002;-50
2021/07/28 04:00:43;;;;;;;9.03;5.97;;;20.40;70.30;;;;;;1869631;76;21063;-51
2021/07/28 04:03:13;;;;;;;17.52;9.00;;;20.50;70.10;;;;;;1863153;76;21108;-48
2021/07/28 04:05:42;;;;;;;17.17;10.30;;;20.50;70.00;;;;;;1863086;77;21101;-49
2021/07/28 04:08:11;;;;;;;12.68;8.78;;;20.50;69.90;;;;;;1863220;77;21035;-50
2021/07/28 04:10:41;;;;;;;10.13;6.78;;;20.50;69.70;;;;;;1863186;77;21512;-50
2021/07/28 04:13:10;;;;;;;11.18;8.15;;;20.60;69.80;;;;;;1863125;77;21007;-51
2021/07/28 04:15:39;;;;;;;15.68;8.28;;;20.70;69.70;;;;;;1863188;77;21023;-50
2021/07/28 04:18:09;;;;;;;13.30;8.90;;;20.80;69.70;;;;;;1863143;76;21031;-50
2021/07/28 04:20:38;;;;;;;13.03;7.87;;;20.80;69.30;;;;;;1863083;76;21011;-51
2021/07/28 04:23:08;;;;;;;12.78;6.10;;;21.00;69.50;;;;;;1863109;76;21077;-50
2021/07/28 04:25:37;;;;;;;8.55;5.78;;;21.10;69.40;;;;;;1863038;77;21019;-51
2021/07/28 04:28:07;;;;;;;8.20;4.97;;;21.20;68.60;;;;;;1863130;77;21059;-48
2021/07/28 04:30:36;;;;;;;7.67;4.83;;;21.30;68.40;;;;;;1863177;77;21011;-50
2021/07/28 04:33:06;;;;;;;8.98;5.15;;;21.30;68.20;;;;;;1863051;76;21154;-51
2021/07/28 04:35:35;;;;;;;5.95;4.70;;;21.30;68.50;;;;;;1863158;77;21082;-51
2021/07/28 04:38:04;;;;;;;9.05;4.70;;;21.40;69.20;;;;;;1863150;76;21066;-51
2021/07/28 04:40:34;;;;;;;10.05;4.67;;;21.50;68.20;;;;;;1863084;76;21026;-47
2021/07/28 04:43:03;;;;;;;7.28;4.78;;;21.60;68.30;;;;;;1863070;76;21030;-51
2021/07/28 04:45:33;;;;;;;6.47;4.25;;;21.50;67.90;;;;;;1862996;77;21055;-51
2021/07/28 04:48:03;;;;;;;6.50;4.60;;;21.60;67.80;;;;;;1863216;77;21093;-51
2021/07/28 04:50:33;;;;;;;11.20;6.17;;;21.60;67.60;;;;;;1863139;76;21578;-51
2021/07/28 04:53:03;;;;;;;8.95;5.72;;;21.60;67.20;;;;;;1863031;76;21011;-49
2021/07/28 04:55:33;;;;;;;12.60;5.47;;;21.60;67.70;;;;;;1863041;77;21031;-49
2021/07/28 04:58:02;;;;;;;10.53;5.97;;;21.70;67.80;;;;;;1863030;76;21007;-50
2021/07/28 05:00:32;;;;;;;6.40;4.55;;;21.80;67.80;;;;;;1878234;76;21034;-51
2021/07/28 05:03:01;;;;;;;7.05;5.30;;;21.90;67.50;;;;;;1896905;76;21025;-50
2021/07/28 05:05:30;;;;;;;8.83;5.35;;;22.00;67.40;;;;;;1896895;76;21068;-48
2021/07/28 05:08:00;;;;;;;9.30;5.33;;;22.00;67.30;;;;;;1896957;76;21088;-51
2021/07/28 05:10:29;;;;;;;9.53;4.83;;;22.10;67.10;;;;;;1896940;76;21080;-48
2021/07/28 05:12:59;;;;;;;7.65;4.95;;;22.20;66.90;;;;;;1897041;76;21112;-52
2021/07/28 05:15:28;;;;;;;8.55;4.05;;;22.20;66.80;;;;;;1897044;76;21022;-50
2021/07/28 05:17:58;;;;;;;6.53;4.25;;;22.20;66.60;;;;;;1897287;76;21022;-49
2021/07/28 05:20:27;;;;;;;15.05;5.75;;;22.30;66.80;;;;;;1896929;76;21042;-51
2021/07/28 05:22:56;;;;;;;11.30;4.50;;;22.30;66.60;;;;;;1896994;76;21084;-50
2021/07/28 05:25:28;;;;;;;7.22;4.97;;;22.30;66.50;;;;;;1896905;76;21135;-49
2021/07/28 05:27:57;;;;;;;16.55;10.72;;;22.30;66.50;;;;;;1896892;76;21030;-51
2021/07/28 05:30:27;;;;;;;13.62;5.00;;;22.40;66.60;;;;;;1896909;76;21084;-50
2021/07/28 05:32:57;;;;;;;7.83;4.60;;;22.50;66.10;;;;;;1896946;76;21519;-51
2021/07/28 05:35:26;;;;;;;12.70;4.62;;;22.50;66.10;;;;;;1896964;76;21025;-51
2021/07/28 05:38:00;;;;;;;18.10;5.58;;;22.60;66.00;;;;;;1897281;74;21077;-51
2021/07/28 05:40:30;;;;;;;9.03;4.58;;;22.60;65.90;;;;;;1897220;76;21029;-47
2021/07/28 05:42:59;;;;;;;4.62;3.10;;;22.60;65.50;;;;;;1897310;76;21018;-50
2021/07/28 05:45:29;;;;;;;12.15;6.22;;;22.60;65.20;;;;;;1897117;76;21092;-50
2021/07/28 05:47:59;;;;;;;5.30;4.22;;;22.70;65.40;;;;;;1897191;76;21025;-51
2021/07/28 05:50:28;;;;;;;7.62;4.28;;;22.80;65.30;;;;;;1897129;76;21013;-51
2021/07/28 05:52:57;;;;;;;9.15;4.42;;;22.90;65.30;;;;;;1897224;76;21030;-49
2021/07/28 05:55:27;;;;;;;9.05;4.28;;;23.00;65.40;;;;;;1897110;76;21030;-51
2021/07/28 05:57:58;;;;;;;22.35;15.72;;;23.10;64.50;;;;;;1897101;75;21010;-51
2021/07/28 06:00:28;;;;;;;6.95;4.20;;;23.20;64.40;;;;;;1897041;74;21155;-49
2021/07/28 06:02:57;;;;;;;11.22;4.42;;;23.30;64.30;;;;;;1897265;76;21018;-51
2021/07/28 06:05:27;;;;;;;8.93;3.52;;;23.50;64.20;;;;;;1897106;76;21115;-52
2021/07/28 06:07:56;;;;;;;8.25;4.10;;;23.60;63.40;;;;;;1897303;76;21455;-51
2021/07/28 06:10:26;;;;;;;8.65;4.58;;;23.60;63.40;;;;;;1897250;76;21146;-52
2021/07/28 06:12:55;;;;;;;12.53;4.55;;;23.70;63.50;;;;;;1897102;75;21077;-51
2021/07/28 06:15:24;;;;;;;7.22;4.30;;;23.80;62.70;;;;;;1897125;76;21018;-49
2021/07/28 06:17:54;;;;;;;7.35;4.00;;;23.80;62.80;;;;;;1897205;76;21099;-51
2021/07/28 06:20:23;;;;;;;9.70;4.05;;;24.00;62.50;;;;;;1897166;76;21006;-51
2021/07/28 06:22:52;;;;;;;5.25;3.40;;;24.10;62.30;;;;;;1897206;76;21033;-51
2021/07/28 06:25:22;;;;;;;6.70;3.40;;;24.20;61.40;;;;;;1896946;74;20990;-51
2021/07/28 06:27:51;;;;;;;9.45;4.03;;;24.20;61.90;;;;;;1896635;76;21146;-50
2021/07/28 06:30:29;;;;;;;8.30;3.58;;;24.30;61.80;;;;;;1896604;76;21076;-50
2021/07/28 06:33:08;;;;;;;7.10;3.85;;;24.30;61.80;;;;;;1896817;75;21074;-51
2021/07/28 06:35:47;;;;;;;8.53;3.92;;;24.30;61.50;;;;;;1896747;76;21095;-48
2021/07/28 06:38:32;;;;;;;10.88;3.83;;;24.50;61.50;;;;;;1896070;76;21163;-49
2021/07/28 06:41:13;;;;;;;10.15;3.83;;;24.50;60.90;;;;;;1895673;76;21026;-50
2021/07/28 06:43:50;;;;;;;4.90;2.92;;;24.60;60.90;;;;;;1895745;76;21460;-50
2021/07/28 06:46:24;;;;;;;4.12;2.70;;;24.80;60.50;;;;;;1894435;75;21037;-50
2021/07/28 06:48:53;;;;;;;6.10;3.60;;;24.80;59.70;;;;;;1877138;76;21091;-51
2021/07/28 06:51:23;;;;;;;6.17;3.65;;;24.90;58.30;;;;;;1897317;76;21030;-51
2021/07/28 06:53:52;;;;;;;3.87;2.00;;;25.00;58.10;;;;;;1897258;76;21091;-50
2021/07/28 06:56:22;;;;;;;7.65;2.60;;;25.10;56.00;;;;;;1897219;76;21164;-48
2021/07/28 06:58:51;;;;;;;5.30;2.90;;;25.20;55.90;;;;;;1897236;76;21010;-48
2021/07/28 07:01:20;;;;;;;7.60;2.77;;;25.30;56.40;;;;;;1889825;76;21125;-50
2021/07/28 07:03:50;;;;;;;4.40;2.45;;;25.40;56.30;;;;;;1872474;77;21039;-50
2021/07/28 07:06:19;;;;;;;7.72;2.52;;;25.50;54.80;;;;;;1872324;76;21047;-50
2021/07/28 07:08:48;;;;;;;7.80;2.80;;;25.50;55.40;;;;;;1872376;77;21117;-47
2021/07/28 07:11:18;;;;;;;4.20;2.83;;;25.60;54.00;;;;;;1872448;76;21414;-50
2021/07/28 07:13:47;;;;;;;4.65;2.12;;;25.60;54.90;;;;;;1871328;77;21109;-49
2021/07/28 07:16:16;;;;;;;8.43;2.60;;;25.70;54.60;;;;;;1870741;77;21606;-53
2021/07/28 07:18:45;;;;;;;4.20;2.67;;;25.80;54.40;;;;;;1871817;77;21023;-52
2021/07/28 07:21:15;;;;;;;9.83;3.20;;;25.80;54.50;;;;;;1872472;77;21012;-53
2021/07/28 07:23:44;;;;;;;9.23;3.33;;;25.90;54.30;;;;;;1872305;75;21019;-53
2021/07/28 07:26:14;;;;;;;4.42;2.20;;;26.00;53.40;;;;;;1872310;75;21100;-54
2021/07/28 07:28:43;;;;;;;4.62;2.90;;;26.00;53.10;;;;;;1872391;77;21026;-53
2021/07/28 07:31:13;;;;;;;4.50;2.33;;;26.00;52.80;;;;;;1872441;76;21027;-53
2021/07/28 07:33:42;;;;;;;5.03;2.70;;;26.00;52.30;;;;;;1872419;77;21092;-53
2021/07/28 07:36:17;;;;;;;7.58;3.27;;;26.00;52.20;;;;;;1872285;77;21027;-54
2021/07/28 07:38:45;;;;;;;9.15;3.62;;;26.00;52.20;;;;;;1872466;77;21410;-54
2021/07/28 07:41:15;;;;;;;8.85;4.12;;;26.00;52.30;;;;;;1871958;76;21071;-54
2021/07/28 07:43:45;;;;;;;3.17;2.40;;;26.10;52.30;;;;;;1872282;77;21055;-55
2021/07/28 07:46:14;;;;;;;9.03;3.87;;;26.30;50.70;;;;;;1872230;76;21105;-54
2021/07/28 07:48:43;;;;;;;7.40;3.35;;;26.30;50.60;;;;;;1872334;75;21038;-53
2021/07/28 07:51:13;;;;;;;5.10;2.90;;;26.40;50.80;;;;;;1872353;77;21031;-53
2021/07/28 07:53:42;;;;;;;5.55;3.02;;;26.60;50.40;;;;;;1872473;76;21047;-54
2021/07/28 07:56:12;;;;;;;5.03;2.83;;;26.70;48.90;;;;;;1872512;77;21105;-53
2021/07/28 07:58:41;;;;;;;5.30;2.52;;;26.70;48.60;;;;;;1872678;75;21113;-53
2021/07/28 08:01:11;;;;;;;4.58;2.45;;;26.70;48.50;;;;;;1872354;77;21097;-53
2021/07/28 08:03:42;;;;;;;3.62;2.75;;;26.70;48.10;;;;;;1884867;76;21062;-53
2021/07/28 08:06:11;;;;;;;6.95;3.20;;;26.80;48.70;;;;;;1884660;76;21027;-53
2021/07/28 08:08:41;;;;;;;10.45;3.33;;;26.90;48.60;;;;;;1884703;76;21118;-52
2021/07/28 08:11:14;;;;;;;6.92;3.08;;;27.00;48.70;;;;;;1884854;76;21031;-54
2021/07/28 08:13:44;;;;;;;4.78;2.62;;;27.10;48.50;;;;;;1884714;75;21168;-54
2021/07/28 08:16:18;;;;;;;7.37;2.65;;;27.30;49.00;;;;;;1884840;76;21097;-54
2021/07/28 08:18:51;;;;;;;6.37;3.40;;;27.30;48.10;;;;;;1884863;75;21105;-53
2021/07/28 08:21:20;;;;;;;10.00;3.22;;;27.30;48.70;;;;;;1884892;76;21088;-54
2021/07/28 08:23:50;;;;;;;5.55;2.95;;;27.40;47.30;;;;;;1884897;76;21090;-54
2021/07/28 08:26:19;;;;;;;5.55;3.25;;;27.40;47.20;;;;;;1884269;75;21089;-54
2021/07/28 08:28:49;;;;;;;7.00;3.10;;;27.40;47.00;;;;;;1884768;75;21019;-55
2021/07/28 08:31:18;;;;;;;7.65;3.83;;;27.50;47.20;;;;;;1884740;76;21068;-54
2021/07/28 08:33:48;;;;;;;6.53;3.25;;;27.60;46.60;;;;;;1884785;76;21069;-54
2021/07/28 08:36:17;;;;;;;7.15;3.40;;;27.60;46.40;;;;;;1884654;75;21147;-54
2021/07/28 08:38:46;;;;;;;8.75;2.87;;;27.60;46.40;;;;;;1884695;75;21065;-54
2021/07/28 08:41:18;;;;;;;3.30;2.47;;;27.60;46.50;;;;;;1884750;75;21413;-54
2021/07/28 08:43:53;;;;;;;6.28;2.98;;;27.60;46.40;;;;;;1884906;76;21590;-54
2021/07/28 08:46:20;;;;;;;6.97;3.42;;;27.70;45.90;;;;;;1884356;76;21039;-55
2021/07/28 08:48:50;;;;;;;6.15;3.42;;;27.70;46.00;;;;;;1884565;75;21043;-55
2021/07/28 08:51:20;;;;;;;4.00;2.22;;;27.80;46.50;;;;;;1884738;75;21100;-54
2021/07/28 08:53:49;;;;;;;4.70;3.10;;;27.90;46.00;;;;;;1884799;76;21100;-54
2021/07/28 08:56:20;;;;;;;7.53;3.10;;;28.00;46.20;;;;;;1884778;75;21027;-54
2021/07/28 08:58:50;;;;;;;8.40;4.40;;;28.10;45.60;;;;;;1884877;75;20991;-54
2021/07/28 09:01:19;;;;;;;6.20;3.50;;;28.10;45.70;;;;;;1884802;75;21030;-55
2021/07/28 09:03:49;;;;;;;7.72;3.02;;;28.10;45.70;;;;;;1875077;75;21090;-54
2021/07/28 09:06:31;;;;;;;6.42;2.92;;;28.10;45.40;;;;;;1872576;77;21035;-50
2021/07/28 09:09:02;;;;;;;14.13;2.85;;;28.10;46.10;;;;;;1872436;76;21050;-55
2021/07/28 09:11:31;;;;;;;9.88;3.98;;;28.20;46.50;;;;;;1872639;77;21027;-55
2021/07/28 09:14:19;;;;;;;9.70;3.22;;;28.30;45.80;;;;;;1871291;77;21007;-55
2021/07/28 09:16:48;;;;;;;11.08;3.00;;;28.30;45.70;;;;;;1872695;76;21051;-53
2021/07/28 09:19:36;;;;;;;7.33;3.75;;;28.30;45.30;;;;;;1871974;76;21098;-55
2021/07/28 09:22:06;;;;;;;8.58;3.58;;;28.30;45.30;;;;;;1872246;76;21080;-55
2021/07/28 09:24:36;;;;;;;7.62;2.60;;;28.40;46.00;;;;;;1872414;77;21085;-54
2021/07/28 09:27:06;;;;;;;7.05;3.33;;;28.50;45.50;;;;;;1872647;77;21031;-54
2021/07/28 09:29:39;;;;;;;9.10;3.72;;;28.40;45.40;;;;;;1872533;77;21100;-55
2021/07/28 09:32:08;;;;;;;8.60;3.30;;;28.50;45.60;;;;;;1872431;76;21031;-54
2021/07/28 09:34:39;;;;;;;3.70;2.98;;;28.50;45.20;;;;;;1872498;77;21046;-54
2021/07/28 09:37:17;;;;;;;5.70;3.20;;;28.50;45.10;;;;;;1872485;75;21089;-55
2021/07/28 09:39:48;;;;;;;11.28;3.20;;;28.60;45.20;;;;;;1872526;76;21059;-55
2021/07/28 09:42:19;;;;;;;6.97;4.03;;;28.60;45.30;;;;;;1872624;76;21070;-55
2021/07/28 09:44:50;;;;;;;4.05;3.58;;;28.60;45.00;;;;;;1870566;77;21090;-54
2021/07/28 09:47:21;;;;;;;3.45;2.42;;;28.70;44.70;;;;;;1871494;76;21161;-54
2021/07/28 09:50:05;;;;;;;5.65;3.25;;;28.60;44.60;;;;;;1871671;76;20979;-54
2021/07/28 09:52:34;;;;;;;11.33;3.40;;;28.70;45.10;;;;;;1872866;76;21035;-54
2021/07/28 09:55:30;;;;;;;7.58;3.08;;;28.70;45.30;;;;;;1872656;77;21030;-54
2021/07/28 09:58:00;;;;;;;7.45;3.55;;;28.80;45.20;;;;;;1872661;77;21011;-54
2021/07/28 10:00:30;;;;;;;8.95;3.37;;;28.90;44.90;;;;;;1872614;76;21085;-54
2021/07/28 10:03:01;;;;;;;6.28;2.67;;;29.00;44.70;;;;;;1874918;74;21034;-54
2021/07/28 10:05:32;;;;;;;8.58;3.12;;;29.00;44.90;;;;;;1874730;75;21035;-53
2021/07/28 10:08:04;;;;;;;5.70;2.90;;;29.00;44.60;;;;;;1894063;76;21128;-53
2021/07/28 10:10:36;;;;;;;5.37;2.45;;;29.10;44.70;;;;;;1893829;75;21088;-54
2021/07/28 10:13:05;;;;;;;6.30;2.65;;;29.00;43.60;;;;;;1894116;75;21402;-53
2021/07/28 10:15:37;;;;;;;4.35;2.75;;;28.90;44.10;;;;;;1893942;76;21076;-53
2021/07/28 10:18:07;;;;;;;8.73;3.92;;;29.00;44.30;;;;;;1894014;75;21050;-54
2021/07/28 10:20:37;;;;;;;4.72;2.87;;;29.00;44.70;;;;;;1894052;75;21042;-54
2021/07/28 10:23:06;;;;;;;6.15;3.55;;;29.00;44.80;;;;;;1893966;76;21006;-54
2021/07/28 10:25:35;;;;;;;8.45;2.77;;;29.10;44.00;;;;;;1893985;75;21030;-53
2021/07/28 10:28:05;;;;;;;12.18;3.58;;;29.10;44.10;;;;;;1894090;76;21042;-54
2021/07/28 10:30:35;;;;;;;5.83;3.15;;;29.10;44.50;;;;;;1893899;76;21030;-54
2021/07/28 10:33:23;;;;;;;9.10;3.87;;;29.10;44.00;;;;;;1893964;76;21085;-54
2021/07/28 10:35:53;;;;;;;8.38;3.10;;;29.20;44.30;;;;;;1893964;76;21107;-54
2021/07/28 10:38:22;;;;;;;8.35;2.77;;;29.20;44.10;;;;;;1894138;76;21088;-54
2021/07/28 10:40:59;;;;;;;6.80;3.45;;;29.30;44.20;;;;;;1893978;74;21022;-55
2021/07/28 10:43:23;;;;;;;5.95;2.98;;;29.30;44.40;;;;;;1893516;75;21468;-54
2021/07/28 10:45:57;;;;;;;9.83;3.67;;;29.30;43.90;;;;;;1893874;76;21084;-55
2021/07/28 10:48:44;;;;;;;7.15;3.50;;;29.30;43.40;;;;;;1894154;76;21030;-54
2021/07/28 10:51:22;;;;;;;6.20;3.67;;;29.40;43.60;;;;;;1878942;75;21116;-54
2021/07/28 10:53:52;;;;;;;10.55;4.25;;;29.40;43.80;;;;;;1876349;76;21054;-54
2021/07/28 10:56:21;;;;;;;10.98;4.10;;;29.50;44.00;;;;;;1894103;75;21030;-54
2021/07/28 10:58:50;;;;;;;11.55;3.55;;;29.50;43.60;;;;;;1894012;76;21010;-54
2021/07/28 11:01:21;;;;;;;7.53;3.02;;;29.60;42.70;;;;;;1894010;74;21092;-54
2021/07/28 11:03:50;;;;;;;4.40;2.77;;;29.60;43.30;;;;;;1891126;76;21540;-54
2021/07/28 11:06:21;;;;;;;8.40;2.67;;;29.70;43.00;;;;;;1893910;75;21155;-54
2021/07/28 11:08:51;;;;;;;4.78;3.30;;;29.60;42.60;;;;;;1893988;75;21097;-54
2021/07/28 11:11:22;;;;;;;10.43;3.30;;;29.60;43.20;;;;;;1893987;76;21026;-55
2021/07/28 11:13:52;;;;;;;18.00;3.62;;;29.70;43.00;;;;;;1894016;76;21030;-54
2021/07/28 11:16:23;;;;;;;11.53;3.85;;;29.70;42.80;;;;;;1894057;76;21088;-54
2021/07/28 11:18:53;;;;;;;7.20;3.37;;;29.70;42.80;;;;;;1894102;76;21100;-54
2021/07/28 11:21:26;;;;;;;8.00;4.33;;;29.70;43.10;;;;;;1894049;76;21030;-54
2021/07/28 11:24:04;;;;;;;5.67;3.42;;;29.80;43.00;;;;;;1894232;76;21073;-54
2021/07/28 11:26:33;;;;;;;7.80;3.10;;;29.80;43.00;;;;;;1892757;75;21105;-54
2021/07/28 11:29:09;;;;;;;6.97;2.70;;;29.70;42.70;;;;;;1894271;76;21014;-54
2021/07/28 11:31:43;;;;;;;6.67;3.25;;;29.80;43.20;;;;;;1894203;75;21143;-53
2021/07/28 11:34:22;;;;;;;7.58;3.77;;;29.80;43.70;;;;;;1894193;76;21022;-55
2021/07/28 11:36:57;;;;;;;53.20;47.70;;;29.90;42.90;;;;;;1894100;74;21026;-54
2021/07/28 11:39:26;;;;;;;7.08;3.58;;;29.90;43.30;;;;;;1894013;75;21104;-54
2021/07/28 11:42:04;;;;;;;6.35;5.17;;;29.90;43.30;;;;;;1894086;76;21030;-55
2021/07/28 11:44:44;;;;;;;14.60;3.77;;;30.00;43.20;;;;;;1894024;76;21026;-55
2021/07/28 11:47:13;;;;;;;6.05;3.75;;;30.00;43.40;;;;;;1894042;76;21092;-55
2021/07/28 11:49:43;;;;;;;10.20;3.70;;;30.00;43.40;;;;;;1894008;74;21054;-55
2021/07/28 11:52:12;;;;;;;5.15;3.17;;;30.00;43.40;;;;;;1894083;75;21026;-56
2021/07/28 11:54:42;;;;;;;8.63;4.87;;;30.10;43.20;;;;;;1894096;75;21480;-56
2021/07/28 11:57:11;;;;;;;12.88;4.33;;;30.20;43.70;;;;;;1894125;76;21002;-56
2021/07/28 11:59:41;;;;;;;5.60;3.37;;;30.20;43.20;;;;;;1894030;76;21112;-56
2021/07/28 12:02:13;;;;;;;2.92;2.47;;;30.30;43.20;;;;;;1894139;76;21030;-56
2021/07/28 12:04:46;;;;;;;5.45;3.37;;;30.30;42.80;;;;;;1892821;75;21492;-56
2021/07/28 12:07:18;;;;;;;8.63;3.35;;;30.30;42.70;;;;;;1893886;75;21046;-56
2021/07/28 12:10:00;;;;;;;4.80;3.12;;;30.30;43.00;;;;;;1894216;76;21113;-56
2021/07/28 12:12:30;;;;;;;11.33;5.03;;;30.30;43.30;;;;;;1894100;75;21046;-56
2021/07/28 12:15:11;;;;;;;8.40;3.45;;;30.30;43.70;;;;;;1894065;75;21097;-56
2021/07/28 12:17:50;;;;;;;7.22;3.33;;;30.50;43.20;;;;;;1893892;74;21002;-56
2021/07/28 12:20:20;;;;;;;7.15;3.40;;;30.50;42.90;;;;;;1888243;75;21115;-56
2021/07/28 12:22:51;;;;;;;10.90;3.27;;;30.50;43.10;;;;;;1894077;75;21080;-56
2021/07/28 12:25:23;;;;;;;6.97;4.70;;;30.50;43.20;;;;;;1892910;74;21026;-56
2021/07/28 12:28:04;;;;;;;8.90;4.08;;;30.50;43.00;;;;;;1894080;75;21456;-55
2021/07/28 12:30:39;;;;;;;4.92;3.20;;;30.60;43.00;;;;;;1894296;75;21042;-56
2021/07/28 12:33:16;;;;;;;5.75;3.20;;;30.60;42.60;;;;;;1893847;75;21089;-54
2021/07/28 12:35:53;;;;;;;13.00;3.52;;;30.60;42.60;;;;;;1894035;75;21022;-56
2021/07/28 12:38:32;;;;;;;5.20;3.50;;;30.60;42.60;;;;;;1894045;75;21019;-57
2021/07/28 12:41:06;;;;;;;7.83;3.98;;;30.60;42.80;;;;;;1894091;76;21050;-57
2021/07/28 12:43:37;;;;;;;20.40;5.67;;;30.60;42.40;;;;;;1894381;74;21088;-56
2021/07/28 12:46:09;;;;;;;15.48;5.15;;;30.60;42.80;;;;;;1894014;76;21084;-54
2021/07/28 12:48:41;;;;;;;8.23;3.65;;;30.60;42.70;;;;;;1894151;75;21162;-54
2021/07/28 12:51:11;;;;;;;10.95;4.28;;;30.60;42.40;;;;;;1894158;76;21080;-55
2021/07/28 12:53:40;;;;;;;7.78;3.83;;;30.70;42.30;;;;;;1894151;76;21034;-54
2021/07/28 12:56:10;;;;;;;11.33;3.40;;;30.70;42.20;;;;;;1894215;76;21058;-55
2021/07/28 12:58:39;;;;;;;10.43;4.30;;;30.60;42.60;;;;;;1894059;76;21030;-55
2021/07/28 13:01:08;;;;;;;8.20;3.25;;;30.70;42.50;;;;;;1894118;75;21069;-55
2021/07/28 13:03:39;;;;;;;8.65;3.47;;;30.70;42.30;;;;;;1893980;75;21034;-54